createdAt,value
2018-07-13T00:00:34.429Z,14.30
2018-07-13T00:03:03.547Z,14.40
2018-07-13T00:05:32.672Z,14.20
2018-07-13T00:08:01.868Z,14.30
2018-07-13T00:10:31.068Z,14.30
2018-07-13T00:13:00.434Z,14.30
2018-07-13T00:15:29.762Z,14.30
2018-07-13T00:17:59.107Z,14.30
2018-07-13T00:20:28.131Z,14.30
2018-07-13T00:22:57.396Z,14.40
2018-07-13T00:25:26.943Z,14.30
2018-07-13T00:27:56.184Z,14.40
2018-07-13T00:30:25.357Z,14.40
2018-07-13T00:32:54.637Z,14.50
2018-07-13T00:35:23.716Z,14.40
2018-07-13T00:37:52.968Z,14.40
2018-07-13T00:40:22.136Z,14.40
2018-07-13T00:42:51.351Z,14.40
2018-07-13T00:45:20.660Z,14.50
2018-07-13T00:47:49.844Z,14.40
2018-07-13T00:50:19.039Z,14.30
2018-07-13T00:52:48.427Z,14.20
2018-07-13T00:55:17.483Z,14.30
2018-07-13T00:57:46.631Z,14.40
2018-07-13T01:00:18.104Z,14.40
2018-07-13T01:02:47.234Z,14.40
2018-07-13T01:05:16.659Z,14.40
2018-07-13T01:07:46.105Z,14.40
2018-07-13T01:10:15.140Z,14.40
2018-07-13T01:12:44.377Z,14.30
2018-07-13T01:15:13.673Z,14.30
2018-07-13T01:17:42.832Z,14.40
2018-07-13T01:20:12.126Z,14.40
2018-07-13T01:22:41.361Z,14.50
2018-07-13T01:25:10.669Z,14.40
2018-07-13T01:27:39.984Z,14.50
2018-07-13T01:32:37.753Z,14.40
2018-07-13T01:35:06.904Z,14.40
2018-07-13T01:37:36.177Z,14.30
2018-07-13T01:40:05.413Z,14.30
2018-07-13T01:42:34.741Z,14.30
2018-07-13T01:45:04.128Z,14.40
2018-07-13T01:47:33.286Z,14.40
2018-07-13T01:50:02.597Z,14.40
2018-07-13T01:52:31.990Z,14.30
2018-07-13T01:55:01.082Z,14.40
2018-07-13T01:57:30.334Z,14.40
2018-07-13T01:59:59.509Z,14.40
2018-07-13T02:02:28.746Z,14.50
2018-07-13T02:04:58.114Z,14.50
2018-07-13T02:07:27.358Z,14.50
2018-07-13T02:09:57.110Z,14.50
2018-07-13T02:12:26.210Z,14.40
2018-07-13T02:14:55.570Z,14.40
2018-07-13T02:17:24.930Z,14.50
2018-07-13T02:19:54.174Z,14.40
2018-07-13T02:22:23.483Z,14.40
2018-07-13T02:24:52.684Z,14.50
2018-07-13T02:27:21.926Z,14.60
2018-07-13T02:29:51.110Z,14.60
2018-07-13T02:32:20.403Z,14.40
2018-07-13T02:34:49.458Z,14.50
2018-07-13T02:37:18.954Z,14.50
2018-07-13T02:39:48.072Z,14.50
2018-07-13T02:42:17.274Z,14.60
2018-07-13T02:44:46.513Z,14.60
2018-07-13T02:47:15.720Z,14.50
2018-07-13T02:49:45.666Z,14.50
2018-07-13T02:52:14.690Z,14.40
2018-07-13T02:54:44.024Z,14.40
2018-07-13T02:57:13.514Z,14.50
2018-07-13T02:59:42.854Z,14.50
2018-07-13T03:02:12.092Z,14.40
2018-07-13T03:04:41.627Z,14.50
2018-07-13T03:07:10.970Z,14.40
2018-07-13T03:09:40.269Z,14.50
2018-07-13T03:12:09.400Z,14.50
2018-07-13T03:14:38.549Z,14.60
2018-07-13T03:17:07.912Z,14.60
2018-07-13T03:19:36.910Z,14.60
2018-07-13T03:22:06.462Z,14.60
2018-07-13T03:24:35.506Z,14.60
2018-07-13T03:27:04.754Z,14.50
2018-07-13T03:29:33.922Z,14.60
2018-07-13T03:32:03.326Z,14.60
2018-07-13T03:34:32.599Z,14.60
2018-07-13T03:37:01.870Z,14.50
2018-07-13T03:39:31.613Z,14.60
2018-07-13T03:42:01.290Z,14.50
2018-07-13T03:44:30.522Z,14.50
2018-07-13T03:46:59.761Z,14.50
2018-07-13T03:49:29.041Z,14.60
2018-07-13T03:51:58.326Z,14.60
2018-07-13T03:56:56.534Z,14.60
2018-07-13T03:59:25.726Z,14.60
2018-07-13T04:01:54.975Z,14.60
2018-07-13T04:04:24.370Z,14.50
2018-07-13T04:06:53.749Z,14.60
2018-07-13T04:09:23.089Z,14.70
2018-07-13T04:11:52.357Z,14.60
2018-07-13T04:14:21.853Z,14.60
2018-07-13T04:16:51.308Z,14.60
2018-07-13T04:21:49.333Z,14.50
2018-07-13T04:24:18.436Z,14.60
2018-07-13T04:26:48.610Z,14.60
2018-07-13T04:29:17.854Z,14.50
2018-07-13T04:31:47.514Z,14.60
2018-07-13T04:34:16.889Z,14.70
2018-07-13T04:36:45.886Z,14.70
2018-07-13T04:39:15.083Z,14.70
2018-07-13T04:41:44.522Z,14.70
2018-07-13T04:44:13.801Z,14.80
2018-07-13T04:46:42.959Z,14.80
2018-07-13T04:49:12.472Z,14.80
2018-07-13T04:51:41.912Z,14.90
2018-07-13T04:56:39.777Z,14.80
2018-07-13T04:59:08.993Z,14.80
2018-07-13T05:01:38.180Z,14.90
2018-07-13T05:04:07.846Z,15.20
2018-07-13T05:06:36.793Z,15.20
2018-07-13T05:09:07.610Z,15.30
2018-07-13T05:11:37.045Z,15.40
2018-07-13T05:14:06.217Z,15.50
2018-07-13T05:16:35.592Z,15.40
2018-07-13T05:19:04.670Z,15.50
2018-07-13T05:21:34.305Z,15.60
2018-07-13T05:26:32.373Z,15.30
2018-07-13T05:29:01.642Z,15.30
2018-07-13T05:31:31.020Z,15.40
2018-07-13T05:34:00.278Z,15.30
2018-07-13T05:36:30.186Z,15.20
2018-07-13T05:38:59.309Z,15.10
2018-07-13T05:41:28.600Z,15.30
2018-07-13T05:43:57.718Z,15.40
2018-07-13T05:46:27.008Z,15.40
2018-07-13T05:48:56.178Z,15.40
2018-07-13T05:51:25.355Z,15.60
2018-07-13T05:53:54.625Z,15.60
2018-07-13T05:56:24.064Z,15.60
2018-07-13T05:58:53.599Z,15.50
2018-07-13T06:01:23.022Z,15.50
2018-07-13T06:03:52.431Z,15.30
2018-07-13T06:06:21.563Z,15.30
2018-07-13T06:08:51.314Z,15.40
2018-07-13T06:11:20.649Z,15.50
2018-07-13T06:13:50.358Z,15.50
2018-07-13T06:16:19.554Z,15.60
2018-07-13T06:18:48.671Z,15.50
2018-07-13T06:21:17.971Z,15.50
2018-07-13T06:23:47.225Z,15.60
2018-07-13T06:26:16.587Z,15.70
2018-07-13T06:28:45.980Z,15.80
2018-07-13T06:31:15.305Z,15.80
2018-07-13T06:33:44.539Z,15.80
2018-07-13T06:36:13.734Z,15.80
2018-07-13T06:38:42.882Z,15.70
2018-07-13T06:41:12.326Z,15.70
2018-07-13T06:43:41.470Z,15.80
2018-07-13T06:46:10.772Z,15.80
2018-07-13T06:48:39.950Z,15.90
2018-07-13T06:51:09.371Z,16.10
2018-07-13T06:53:38.482Z,16.00
2018-07-13T06:56:08.103Z,15.90
2018-07-13T06:58:48.560Z,15.90
2018-07-13T07:01:17.733Z,15.90
2018-07-13T07:04:53.350Z,15.90
2018-07-13T07:07:24.170Z,16.10
2018-07-13T07:09:56.010Z,16.10
2018-07-13T07:14:32.359Z,16.10
2018-07-13T07:17:02.223Z,16.20
2018-07-13T07:19:31.737Z,16.20
2018-07-13T07:22:00.891Z,16.20
2018-07-13T07:24:30.645Z,16.20
2018-07-13T07:26:59.979Z,16.20
2018-07-13T07:29:29.204Z,16.30
2018-07-13T07:34:27.589Z,16.40
2018-07-13T07:36:57.133Z,16.40
2018-07-13T07:39:26.767Z,16.50
2018-07-13T07:41:56.405Z,16.50
2018-07-13T07:44:25.483Z,16.50
2018-07-13T07:46:54.828Z,16.60
2018-07-13T07:49:23.886Z,16.70
2018-07-13T07:51:53.526Z,16.80
2018-07-13T07:54:22.857Z,16.70
2018-07-13T07:56:52.443Z,16.80
2018-07-13T07:59:21.519Z,17.00
2018-07-13T08:01:51.556Z,16.90
2018-07-13T08:06:49.468Z,17.00
2018-07-13T08:09:18.279Z,17.10
2018-07-13T08:11:47.396Z,17.20
2018-07-13T08:14:16.764Z,17.50
2018-07-13T08:16:45.827Z,17.70
2018-07-13T08:19:15.092Z,17.70
2018-07-13T08:21:45.219Z,17.60
2018-07-13T08:24:21.787Z,17.40
2018-07-13T08:29:25.446Z,17.60
2018-07-13T08:31:54.838Z,17.40
2018-07-13T08:34:24.285Z,17.50
2018-07-13T08:36:53.908Z,17.70
2018-07-13T08:39:22.985Z,17.50
2018-07-13T08:41:52.619Z,17.50
2018-07-13T08:44:21.951Z,17.70
2018-07-13T08:46:51.339Z,17.70
2018-07-13T08:49:20.523Z,17.90
2018-07-13T08:51:49.905Z,18.10
2018-07-13T08:54:19.009Z,18.20
2018-07-13T08:56:48.389Z,18.20
2018-07-13T08:59:17.458Z,18.30
2018-07-13T09:01:46.757Z,18.20
2018-07-13T09:04:16.030Z,18.20
2018-07-13T09:06:45.032Z,18.10
2018-07-13T09:09:16.439Z,18.20
2018-07-13T09:11:45.783Z,18.20
2018-07-13T09:14:15.239Z,18.20
2018-07-13T09:16:44.484Z,18.40
2018-07-13T09:19:13.609Z,18.60
2018-07-13T09:21:42.863Z,18.60
2018-07-13T09:24:12.100Z,18.60
2018-07-13T09:26:41.444Z,18.80
2018-07-13T09:29:10.588Z,18.50
2018-07-13T09:31:39.718Z,18.70
2018-07-13T09:34:09.342Z,19.00
2018-07-13T09:36:38.827Z,19.20
2018-07-13T09:39:08.625Z,19.20
2018-07-13T09:41:37.952Z,19.20
2018-07-13T09:44:07.012Z,19.00
2018-07-13T09:46:36.353Z,18.70
2018-07-13T09:49:05.999Z,18.70
2018-07-13T09:51:35.514Z,18.70
2018-07-13T09:54:04.920Z,18.80
2018-07-13T09:56:34.455Z,19.50
2018-07-13T09:59:03.611Z,19.30
2018-07-13T10:01:32.888Z,19.60
2018-07-13T10:04:02.093Z,19.30
2018-07-13T10:06:31.467Z,19.90
2018-07-13T10:09:00.844Z,20.60
2018-07-13T10:11:30.252Z,20.90
2018-07-13T10:13:59.586Z,20.50
2018-07-13T10:16:29.154Z,20.40
2018-07-13T10:18:58.478Z,20.00
2018-07-13T10:21:28.775Z,19.90
2018-07-13T10:23:58.467Z,20.30
2018-07-13T10:26:29.218Z,21.60
2018-07-13T10:28:58.350Z,21.50
2018-07-13T10:31:31.710Z,21.30
2018-07-13T10:34:01.098Z,20.80
2018-07-13T10:36:32.028Z,20.10
2018-07-13T10:39:02.030Z,20.30
2018-07-13T10:41:31.256Z,21.50
2018-07-13T10:44:00.650Z,22.00
2018-07-13T10:46:29.902Z,22.70
2018-07-13T10:48:59.228Z,22.80
2018-07-13T10:51:30.066Z,22.30
2018-07-13T10:53:59.492Z,22.20
2018-07-13T10:56:28.742Z,22.90
2018-07-13T10:58:58.027Z,22.00
2018-07-13T11:01:27.261Z,21.40
2018-07-13T11:03:56.657Z,21.40
2018-07-13T11:06:25.914Z,22.30
2018-07-13T11:08:55.038Z,23.00
2018-07-13T11:11:24.298Z,22.90
2018-07-13T11:13:53.671Z,22.50
2018-07-13T11:16:23.087Z,22.40
2018-07-13T11:18:52.139Z,23.10
2018-07-13T11:21:21.542Z,22.60
2018-07-13T11:23:50.624Z,22.80
2018-07-13T11:26:20.128Z,23.40
2018-07-13T11:28:49.650Z,22.90
2018-07-13T11:31:19.295Z,23.70
2018-07-13T11:33:48.776Z,23.60
2018-07-13T11:36:18.285Z,23.70
2018-07-13T11:38:47.622Z,23.50
2018-07-13T11:41:17.339Z,23.80
2018-07-13T11:43:46.701Z,23.20
2018-07-13T11:46:16.321Z,23.40
2018-07-13T11:51:14.249Z,22.90
2018-07-13T11:53:43.596Z,21.70
2018-07-13T11:56:13.035Z,22.60
2018-07-13T11:58:42.230Z,22.50
2018-07-13T12:01:11.893Z,23.60
2018-07-13T12:03:41.255Z,23.80
2018-07-13T12:06:10.410Z,23.80
2018-07-13T12:08:39.751Z,23.90
2018-07-13T12:11:08.947Z,24.00
2018-07-13T12:13:38.065Z,24.90
2018-07-13T12:16:07.621Z,24.30
2018-07-13T12:18:36.785Z,23.80
2018-07-13T12:21:05.968Z,23.60
2018-07-13T12:23:35.420Z,23.80
2018-07-13T12:26:04.673Z,23.50
2018-07-13T12:28:33.865Z,23.60
2018-07-13T12:31:03.180Z,24.10
2018-07-13T12:33:32.262Z,24.80
2018-07-13T12:36:01.719Z,24.60
2018-07-13T12:38:31.007Z,25.60
2018-07-13T12:41:00.554Z,25.40
2018-07-13T12:43:29.751Z,24.60
2018-07-13T12:45:59.071Z,24.10
2018-07-13T12:48:28.159Z,23.50
2018-07-13T12:50:57.353Z,24.10
2018-07-13T12:53:26.548Z,23.80
2018-07-13T12:55:55.708Z,24.50
2018-07-13T12:58:25.031Z,24.50
2018-07-13T13:00:54.110Z,24.40
2018-07-13T13:03:23.346Z,24.50
2018-07-13T13:05:52.556Z,24.50
2018-07-13T13:08:21.978Z,23.20
2018-07-13T13:10:51.116Z,23.20
2018-07-13T13:13:20.885Z,22.90
2018-07-13T13:15:50.269Z,22.60
2018-07-13T13:18:20.637Z,22.60
2018-07-13T13:20:49.888Z,22.70
2018-07-13T13:23:19.517Z,23.00
2018-07-13T13:25:49.686Z,23.60
2018-07-13T13:28:19.380Z,24.40
2018-07-13T13:30:48.794Z,25.00
2018-07-13T13:33:18.080Z,24.70
2018-07-13T13:35:47.188Z,24.50
2018-07-13T13:38:16.725Z,24.20
2018-07-13T13:40:45.964Z,24.20
2018-07-13T13:43:15.279Z,24.80
2018-07-13T13:45:44.576Z,24.00
2018-07-13T13:48:13.735Z,22.80
2018-07-13T13:50:43.053Z,23.60
2018-07-13T13:53:12.295Z,23.70
2018-07-13T13:55:42.430Z,23.50
2018-07-13T13:58:11.964Z,23.80
2018-07-13T14:00:41.489Z,23.90
2018-07-13T14:03:10.944Z,23.80
2018-07-13T14:05:40.036Z,23.70
2018-07-13T14:08:09.531Z,24.50
2018-07-13T14:10:38.631Z,24.60
2018-07-13T14:13:08.043Z,24.00
2018-07-13T14:15:37.215Z,24.60
2018-07-13T14:18:06.745Z,24.30
2018-07-13T14:20:36.032Z,24.00
2018-07-13T14:23:05.260Z,24.10
2018-07-13T14:25:34.593Z,24.20
2018-07-13T14:28:03.686Z,24.60
2018-07-13T14:30:32.941Z,24.10
2018-07-13T14:33:02.182Z,23.80
2018-07-13T14:35:31.961Z,23.90
2018-07-13T14:38:01.178Z,23.90
2018-07-13T14:40:30.233Z,22.20
2018-07-13T14:42:59.467Z,21.90
2018-07-13T14:45:28.616Z,21.90
2018-07-13T14:47:58.171Z,22.30
2018-07-13T14:50:27.583Z,22.50
2018-07-13T14:52:57.036Z,23.30
2018-07-13T14:55:26.541Z,23.40
2018-07-13T14:57:55.952Z,23.50
2018-07-13T15:00:25.775Z,24.00
2018-07-13T15:02:55.310Z,23.30
2018-07-13T15:05:24.639Z,23.70
2018-07-13T15:07:54.544Z,22.90
2018-07-13T15:10:24.098Z,23.50
2018-07-13T15:12:53.565Z,23.30
2018-07-13T15:15:22.620Z,23.50
2018-07-13T15:17:52.302Z,23.50
2018-07-13T15:20:21.662Z,23.50
2018-07-13T15:22:50.901Z,23.30
2018-07-13T15:25:20.345Z,23.10
2018-07-13T15:27:50.413Z,23.00
2018-07-13T15:30:21.243Z,23.80
2018-07-13T15:32:51.342Z,23.90
2018-07-13T15:35:20.730Z,23.60
2018-07-13T15:37:50.072Z,23.90
2018-07-13T15:40:19.416Z,23.50
2018-07-13T15:42:49.531Z,22.90
2018-07-13T15:45:19.172Z,22.60
2018-07-13T15:47:48.577Z,22.40
2018-07-13T15:50:19.107Z,22.30
2018-07-13T15:52:49.566Z,22.20
2018-07-13T15:55:19.124Z,22.20
2018-07-13T15:57:48.886Z,22.10
2018-07-13T16:00:18.077Z,22.20
2018-07-13T16:02:47.507Z,22.10
2018-07-13T16:05:16.731Z,21.90
2018-07-13T16:07:45.840Z,22.00
2018-07-13T16:10:15.088Z,21.90
2018-07-13T16:12:44.256Z,21.60
2018-07-13T16:15:13.680Z,21.70
2018-07-13T16:17:43.328Z,21.70
2018-07-13T16:20:12.511Z,21.60
2018-07-13T16:22:42.080Z,21.60
2018-07-13T16:25:11.592Z,21.60
2018-07-13T16:27:41.166Z,21.50
2018-07-13T16:30:10.639Z,21.50
2018-07-13T16:32:40.423Z,21.30
2018-07-13T16:35:09.582Z,21.40
2018-07-13T16:37:39.295Z,21.50
2018-07-13T16:42:37.396Z,21.70
2018-07-13T16:45:06.642Z,21.90
2018-07-13T16:47:36.090Z,21.80
2018-07-13T16:50:05.349Z,21.70
2018-07-13T16:52:34.549Z,21.50
2018-07-13T16:55:03.592Z,21.30
2018-07-13T16:57:32.892Z,21.20
2018-07-13T17:00:02.224Z,21.10
2018-07-13T17:02:31.788Z,20.90
2018-07-13T17:05:01.130Z,20.90
2018-07-13T17:07:30.426Z,20.90
2018-07-13T17:10:00.039Z,20.90
2018-07-13T17:12:29.312Z,20.70
2018-07-13T17:15:01.881Z,20.70
2018-07-13T17:17:34.390Z,20.60
2018-07-13T17:20:03.805Z,20.60
2018-07-13T17:22:32.890Z,20.60
2018-07-13T17:25:02.196Z,20.70
2018-07-13T17:27:31.512Z,20.80
2018-07-13T17:30:00.625Z,20.80
2018-07-13T17:32:30.529Z,20.80
2018-07-13T17:35:00.503Z,20.70
2018-07-13T17:37:29.725Z,20.60
2018-07-13T17:39:58.972Z,20.40
2018-07-13T17:42:28.756Z,20.30
2018-07-13T17:44:59.605Z,20.20
2018-07-13T17:47:28.984Z,20.10
2018-07-13T17:49:58.076Z,20.00
2018-07-13T17:52:27.381Z,19.90
2018-07-13T17:54:56.381Z,19.80
2018-07-13T17:57:26.039Z,19.60
2018-07-13T17:59:55.413Z,19.50
2018-07-13T18:02:24.551Z,19.30
2018-07-13T18:04:53.710Z,19.10
2018-07-13T18:07:23.201Z,19.00
2018-07-13T18:09:52.388Z,18.50
2018-07-13T18:12:21.558Z,18.40
2018-07-13T18:14:50.810Z,18.40
2018-07-13T18:17:20.307Z,18.30
2018-07-13T18:19:49.587Z,18.20
2018-07-13T18:22:19.121Z,18.10
2018-07-13T18:24:48.407Z,18.00
2018-07-13T18:27:17.878Z,17.90
2018-07-13T18:29:47.097Z,18.00
2018-07-13T18:32:16.304Z,17.70
2018-07-13T18:34:46.157Z,17.60
2018-07-13T18:37:15.597Z,17.60
2018-07-13T18:39:45.043Z,17.70
2018-07-13T18:42:14.365Z,17.90
2018-07-13T18:44:44.151Z,18.00
2018-07-13T18:47:13.634Z,18.20
2018-07-13T18:49:42.749Z,18.10
2018-07-13T18:52:12.138Z,18.20
2018-07-13T18:54:41.325Z,18.00
2018-07-13T18:57:11.265Z,18.00
2018-07-13T18:59:40.403Z,17.80
2018-07-13T19:02:09.823Z,17.60
2018-07-13T19:04:39.241Z,17.60
2018-07-13T19:07:09.035Z,17.50
2018-07-13T19:09:38.287Z,17.40
2018-07-13T19:12:09.908Z,17.40
2018-07-13T19:14:41.251Z,17.30
2018-07-13T19:17:12.303Z,17.10
2018-07-13T19:19:43.122Z,17.20
2018-07-13T19:22:13.587Z,17.20
2018-07-13T19:24:45.173Z,17.00
2018-07-13T19:27:14.702Z,17.00
2018-07-13T19:29:44.073Z,17.00
2018-07-13T19:32:13.959Z,17.00
2018-07-13T19:34:43.529Z,16.80
2018-07-13T19:37:13.040Z,16.60
2018-07-13T19:39:42.255Z,16.50
2018-07-13T19:42:11.601Z,16.50
2018-07-13T19:44:41.043Z,16.40
2018-07-13T19:47:10.382Z,16.40
2018-07-13T19:49:39.659Z,16.50
2018-07-13T19:52:09.262Z,16.50
2018-07-13T19:54:38.968Z,16.50
2018-07-13T19:57:08.446Z,16.40
2018-07-13T19:59:37.734Z,16.50
2018-07-13T20:02:07.082Z,16.60
2018-07-13T20:04:36.595Z,16.50
2018-07-13T20:07:05.962Z,16.40
2018-07-13T20:09:35.208Z,16.40
2018-07-13T20:12:04.188Z,16.40
2018-07-13T20:14:33.556Z,16.40
2018-07-13T20:17:03.100Z,16.20
2018-07-13T20:19:32.980Z,16.10
2018-07-13T20:22:02.108Z,16.10
2018-07-13T20:24:31.263Z,16.20
2018-07-13T20:27:00.422Z,16.20
2018-07-13T20:29:29.781Z,16.20
2018-07-13T20:31:59.174Z,16.10
2018-07-13T20:34:28.371Z,16.00
2018-07-13T20:36:57.937Z,16.00
2018-07-13T20:39:27.223Z,16.00
2018-07-13T20:41:56.728Z,15.80
2018-07-13T20:44:26.222Z,15.70
2018-07-13T20:46:55.586Z,15.60
2018-07-13T20:49:25.207Z,15.60
2018-07-13T20:51:54.598Z,15.60
2018-07-13T20:54:24.051Z,15.70
2018-07-13T20:56:53.911Z,15.70
2018-07-13T20:59:23.005Z,15.70
2018-07-13T21:01:52.091Z,15.70
2018-07-13T21:04:21.625Z,15.70
2018-07-13T21:06:51.868Z,15.80
2018-07-13T21:09:21.340Z,15.70
2018-07-13T21:11:50.704Z,15.60
2018-07-13T21:14:20.054Z,15.50
2018-07-13T21:16:50.555Z,15.40
2018-07-13T21:19:19.967Z,15.50
2018-07-13T21:21:49.423Z,15.50
2018-07-13T21:24:18.635Z,15.40
2018-07-13T21:26:48.258Z,15.30
2018-07-13T21:29:17.291Z,15.40
2018-07-13T21:31:46.760Z,15.30
2018-07-13T21:34:16.202Z,15.30
2018-07-13T21:36:45.668Z,15.30
2018-07-13T21:39:14.945Z,15.30
2018-07-13T21:41:44.158Z,15.30
2018-07-13T21:44:13.372Z,15.30
2018-07-13T21:46:43.223Z,15.30
2018-07-13T21:49:12.608Z,15.20
2018-07-13T21:51:42.170Z,15.20
2018-07-13T21:54:12.329Z,15.30
2018-07-13T21:56:42.093Z,15.30
2018-07-13T21:59:11.099Z,15.40
2018-07-13T22:01:40.477Z,15.40
2018-07-13T22:04:09.540Z,15.30
2018-07-13T22:06:39.361Z,15.30
2018-07-13T22:09:08.681Z,15.20
2018-07-13T22:11:37.828Z,15.20
2018-07-13T22:14:07.142Z,15.20
2018-07-13T22:16:36.328Z,15.20
2018-07-13T22:19:05.749Z,15.20
2018-07-13T22:21:35.106Z,15.20
2018-07-13T22:24:04.529Z,15.20
2018-07-13T22:26:33.930Z,15.20
2018-07-13T22:29:03.240Z,15.20
2018-07-13T22:31:32.408Z,15.20
2018-07-13T22:34:01.680Z,15.10
2018-07-13T22:36:31.282Z,15.20
2018-07-13T22:39:00.383Z,15.10
2018-07-13T22:41:29.592Z,15.20
2018-07-13T22:43:59.105Z,15.20
2018-07-13T22:46:28.351Z,15.10
2018-07-13T22:48:57.675Z,15.10
2018-07-13T22:51:26.792Z,14.90
2018-07-13T22:53:55.896Z,15.00
2018-07-13T22:56:25.163Z,15.00
2018-07-13T22:58:54.275Z,14.90
2018-07-13T23:01:23.527Z,14.80
2018-07-13T23:03:52.810Z,14.80
2018-07-13T23:06:22.315Z,14.80
2018-07-13T23:08:51.477Z,14.90
2018-07-13T23:11:20.966Z,14.90
2018-07-13T23:13:50.620Z,15.00
2018-07-13T23:16:19.799Z,14.90
2018-07-13T23:18:49.070Z,14.90
2018-07-13T23:21:18.344Z,14.80
2018-07-13T23:23:47.685Z,14.70
2018-07-13T23:26:18.136Z,14.70
2018-07-13T23:28:47.659Z,14.60
2018-07-13T23:31:16.749Z,14.60
2018-07-13T23:33:46.343Z,14.70
2018-07-13T23:36:15.763Z,14.70
2018-07-13T23:38:45.269Z,14.70
2018-07-13T23:41:14.508Z,14.70
2018-07-13T23:43:43.652Z,14.60
2018-07-13T23:46:13.381Z,14.50
2018-07-13T23:51:11.351Z,14.30
2018-07-13T23:53:40.851Z,14.40
2018-07-13T23:56:10.037Z,14.20
2018-07-13T23:58:39.290Z,14.20
